Thomasville, North Carolina
Current Conditions -  °F | °C
As of 3:55 PM on Sunday 21 Dec 2014 (Local Time) from KEXX Reporting Station
Overcast Overcast  
Wind Chill: 47°   Ceiling: 2700
Heat Index: 47°   Visibility: 10mi
Dew Point: 36°   Wind: 3mph
Humidity: 64%   Direction: 50°NE
Pressure: 30.2"   Gusts: NA
Location:  35.88°N, 80.08°W
Report Text: KEXX 212055Z AUTO 05003KT 10SM OVC027 09/02 A3020 RMK AO2 T00860022
Loading
Personal Weather Stations






























Interactive Weather Map New forecast layout! Learn more

10-Day Weather Forecast

Advertisements
Track Severe Weather on mobile